Time;durP1;ratioP1;P1;durP2;ratioP2;P2;SDS_P1;SDS_P2;PMS_P1;PMS_P2;Temp;Humidity;BMP_temperature;BMP_pressure;BME280_temperature;BME280_humidity;BME280_pressure;Samples;Min_cycle;Max_cycle;Signal;HPM_P1;HPM_P2
2023/04/17 00:00:42;;;;;;;;;;;;;;;;;;5062184;28;20268;-54
2023/04/17 00:03:10;;;;;;;;;;;;;;;;;;5041602;28;19912;-54
2023/04/17 00:05:37;;;;;;;;;;;;;;;;;;5055006;28;19967;-54
2023/04/17 00:08:03;;;;;;;;;;;;;;;;;;5055114;28;19983;-54
2023/04/17 00:10:29;;;;;;;;;;;;;;;;;;5061229;28;19927;-53
2023/04/17 00:12:55;;;;;;;;;;;;;;;;;;5057946;28;19912;-54
2023/04/17 00:15:21;;;;;;;;;;;;;;;;;;5061029;28;19966;-54
2023/04/17 00:17:47;;;;;;;;;;;;;;;;;;5061219;28;19982;-52
2023/04/17 00:20:13;;;;;;;;;;;;;;;;;;5055445;28;19999;-53
2023/04/17 00:22:39;;;;;;;;;;;;;;;;;;5058232;28;20448;-53
2023/04/17 00:25:05;;;;;;;;;;;;;;;;;;5064797;28;20399;-53
2023/04/17 00:27:31;;;;;;;;;;;;;;;;;;5061069;28;19983;-54
2023/04/17 00:29:57;;;;;;;;;;;;;;;;;;5063210;28;20165;-54
2023/04/17 00:32:23;;;;;;;;;;;;;;;;;;5054077;28;19912;-54
2023/04/17 00:34:49;;;;;;;;;;;;;;;;;;5062605;28;19913;-53
2023/04/17 00:37:15;;;;;;;;;;;;;;;;;;5061565;28;19935;-55
2023/04/17 00:39:42;;;;;;;;;;;;;;;;;;5064275;28;19908;-53
2023/04/17 00:42:08;;;;;;;;;;;;;;;;;;5065950;28;20272;-53
2023/04/17 00:44:33;;;;;;;;;;;;;;;;;;5064286;28;20009;-53
2023/04/17 00:46:59;;;;;;;;;;;;;;;;;;5063770;28;19952;-53
2023/04/17 00:49:25;;;;;;;;;;;;;;;;;;5064895;28;20663;-53
2023/04/17 00:51:51;;;;;;;;;;;;;;;;;;5060460;28;19948;-53
2023/04/17 00:54:18;;;;;;;;;;;;;;;;;;5065657;28;20440;-54
2023/04/17 00:56:44;;;;;;;;;;;;;;;;;;5061849;28;19980;-53
2023/04/17 00:59:10;;;;;;;;;;;;;;;;;;5069636;28;20325;-54
2023/04/17 01:01:36;;;;;;;;;;;;;;;;;;5064032;28;19960;-54
2023/04/17 01:04:03;;;;;;;;;;;;;;;;;;5065977;28;20014;-53
2023/04/17 01:06:30;;;;;;;;;;;;;;;;;;5065751;28;20332;-54
2023/04/17 01:08:56;;;;;;;;;;;;;;;;;;5063028;28;19969;-54
2023/04/17 01:11:22;;;;;;;;;;;;;;;;;;5064517;28;19978;-54
2023/04/17 01:13:48;;;;;;;;;;;;;;;;;;5046481;28;19912;-54
2023/04/17 01:16:14;;;;;;;;;;;;;;;;;;5059894;28;20272;-53
2023/04/17 01:18:40;;;;;;;;;;;;;;;;;;5062852;28;19955;-54
2023/04/17 01:21:06;;;;;;;;;;;;;;;;;;5066308;28;19919;-54
2023/04/17 01:23:32;;;;;;;;;;;;;;;;;;5058931;28;19916;-58
2023/04/17 01:25:58;;;;;;;;;;;;;;;;;;5053551;28;19951;-53
2023/04/17 01:28:24;;;;;;;;;;;;;;;;;;5060785;28;20045;-53
2023/04/17 01:30:50;;;;;;;;;;;;;;;;;;5065655;28;19915;-54
2023/04/17 01:33:16;;;;;;;;;;;;;;;;;;5060151;28;20367;-53
2023/04/17 01:35:42;;;;;;;;;;;;;;;;;;5060861;28;20267;-54
2023/04/17 01:38:08;;;;;;;;;;;;;;;;;;5064636;28;19994;-54
2023/04/17 01:40:34;;;;;;;;;;;;;;;;;;5062984;28;20422;-53
2023/04/17 01:43:00;;;;;;;;;;;;;;;;;;5053578;28;20293;-53
2023/04/17 01:45:26;;;;;;;;;;;;;;;;;;5063244;28;19966;-54
2023/04/17 01:47:52;;;;;;;;;;;;;;;;;;5047001;28;19978;-54
2023/04/17 01:50:18;;;;;;;;;;;;;;;;;;5061090;28;19946;-53
2023/04/17 01:52:45;;;;;;;;;;;;;;;;;;5063822;28;19918;-53
2023/04/17 01:55:11;;;;;;;;;;;;;;;;;;5063651;28;19912;-53
2023/04/17 01:57:37;;;;;;;;;;;;;;;;;;5060493;28;21061;-53
2023/04/17 02:00:07;;;;;;;;;;;;;;;;;;5063882;28;19921;-54
2023/04/17 02:02:33;;;;;;;;;;;;;;;;;;5053301;28;19999;-53
2023/04/17 02:04:59;;;;;;;;;;;;;;;;;;5059476;28;20344;-53
2023/04/17 02:07:26;;;;;;;;;;;;;;;;;;5061140;28;19966;-53
2023/04/17 02:09:52;;;;;;;;;;;;;;;;;;5064424;28;20015;-53
2023/04/17 02:12:18;;;;;;;;;;;;;;;;;;5061791;28;20124;-54
2023/04/17 02:14:44;;;;;;;;;;;;;;;;;;5055867;28;20325;-53
2023/04/17 02:17:10;;;;;;;;;;;;;;;;;;5066136;28;20372;-53
2023/04/17 02:19:36;;;;;;;;;;;;;;;;;;5066956;28;19912;-53
2023/04/17 02:22:02;;;;;;;;;;;;;;;;;;5063003;28;19952;-53
2023/04/17 02:24:29;;;;;;;;;;;;;;;;;;5042844;28;20406;-53
2023/04/17 02:26:55;;;;;;;;;;;;;;;;;;5045379;28;20035;-53
2023/04/17 02:29:21;;;;;;;;;;;;;;;;;;5063645;28;19912;-53
2023/04/17 02:31:47;;;;;;;;;;;;;;;;;;5051684;28;20013;-54
2023/04/17 02:34:13;;;;;;;;;;;;;;;;;;5063924;28;19955;-53
2023/04/17 02:36:39;;;;;;;;;;;;;;;;;;5056344;28;19940;-54
2023/04/17 02:39:05;;;;;;;;;;;;;;;;;;5065217;28;19940;-54
2023/04/17 02:41:31;;;;;;;;;;;;;;;;;;5061668;28;20276;-54
2023/04/17 02:43:57;;;;;;;;;;;;;;;;;;5060805;28;19919;-53
2023/04/17 02:46:23;;;;;;;;;;;;;;;;;;5061727;28;20305;-53
2023/04/17 02:48:49;;;;;;;;;;;;;;;;;;5057377;28;19913;-53
2023/04/17 02:51:15;;;;;;;;;;;;;;;;;;5064113;28;19955;-53
2023/04/17 02:53:41;;;;;;;;;;;;;;;;;;5062384;28;20309;-53
2023/04/17 02:56:07;;;;;;;;;;;;;;;;;;5063746;28;20292;-53
2023/04/17 02:58:33;;;;;;;;;;;;;;;;;;5055996;28;19947;-54
2023/04/17 03:00:59;;;;;;;;;;;;;;;;;;5061669;28;21311;-54
2023/04/17 03:03:25;;;;;;;;;;;;;;;;;;5062344;28;19918;-54
2023/04/17 03:05:51;;;;;;;;;;;;;;;;;;5058069;28;19919;-54
2023/04/17 03:08:17;;;;;;;;;;;;;;;;;;5052817;28;20036;-55
2023/04/17 03:10:43;;;;;;;;;;;;;;;;;;5057436;28;19912;-53
2023/04/17 03:13:09;;;;;;;;;;;;;;;;;;5062988;28;20355;-54
2023/04/17 03:15:35;;;;;;;;;;;;;;;;;;5060740;28;19958;-54
2023/04/17 03:18:01;;;;;;;;;;;;;;;;;;5054641;28;19908;-54
2023/04/17 03:20:27;;;;;;;;;;;;;;;;;;5061190;28;19947;-53
2023/04/17 03:22:53;;;;;;;;;;;;;;;;;;5062699;28;19986;-53
2023/04/17 03:25:19;;;;;;;;;;;;;;;;;;5060305;28;19948;-53
2023/04/17 03:27:45;;;;;;;;;;;;;;;;;;5062605;28;19917;-53
2023/04/17 03:30:12;;;;;;;;;;;;;;;;;;5060602;28;20364;-53
2023/04/17 03:32:38;;;;;;;;;;;;;;;;;;5058003;28;19932;-54
2023/04/17 03:35:04;;;;;;;;;;;;;;;;;;5063179;28;20407;-53
2023/04/17 03:37:31;;;;;;;;;;;;;;;;;;5060538;28;19913;-54
2023/04/17 03:39:57;;;;;;;;;;;;;;;;;;5059698;28;20398;-53
2023/04/17 03:42:23;;;;;;;;;;;;;;;;;;5063315;28;19964;-54
2023/04/17 03:44:49;;;;;;;;;;;;;;;;;;5061014;28;19923;-53
2023/04/17 03:47:15;;;;;;;;;;;;;;;;;;5060712;28;19951;-54
2023/04/17 03:49:41;;;;;;;;;;;;;;;;;;5060892;28;19915;-53
2023/04/17 03:52:07;;;;;;;;;;;;;;;;;;5055325;28;19919;-55
2023/04/17 03:54:34;;;;;;;;;;;;;;;;;;5063372;28;19947;-53
2023/04/17 03:57:00;;;;;;;;;;;;;;;;;;5058450;28;20418;-54
2023/04/17 03:59:26;;;;;;;;;;;;;;;;;;5059785;28;19912;-53
2023/04/17 04:01:53;;;;;;;;;;;;;;;;;;5065236;28;19969;-53
2023/04/17 04:04:19;;;;;;;;;;;;;;;;;;5065783;28;20347;-53
2023/04/17 04:06:46;;;;;;;;;;;;;;;;;;5061986;28;20123;-53
2023/04/17 04:09:12;;;;;;;;;;;;;;;;;;5065113;28;19954;-54
2023/04/17 04:11:38;;;;;;;;;;;;;;;;;;5043315;28;20032;-53
2023/04/17 04:14:04;;;;;;;;;;;;;;;;;;5062046;28;20042;-53
2023/04/17 04:16:30;;;;;;;;;;;;;;;;;;5066372;28;19916;-53
2023/04/17 04:18:56;;;;;;;;;;;;;;;;;;5064340;28;20317;-54
2023/04/17 04:21:22;;;;;;;;;;;;;;;;;;5067458;28;20011;-53
2023/04/17 04:23:48;;;;;;;;;;;;;;;;;;5064556;28;20280;-54
2023/04/17 04:26:15;;;;;;;;;;;;;;;;;;5059797;28;20008;-53
2023/04/17 04:28:42;;;;;;;;;;;;;;;;;;5067481;28;20397;-54
2023/04/17 04:31:08;;;;;;;;;;;;;;;;;;5065376;28;19917;-54
2023/04/17 04:33:34;;;;;;;;;;;;;;;;;;5061988;28;19920;-54
2023/04/17 04:36:01;;;;;;;;;;;;;;;;;;5061586;28;19908;-54
2023/04/17 04:38:31;;;;;;;;;;;;;;;;;;5047393;28;20257;-54
2023/04/17 04:41:00;;;;;;;;;;;;;;;;;;5042626;28;19908;-54
2023/04/17 04:43:27;;;;;;;;;;;;;;;;;;5057664;28;19920;-54
2023/04/17 04:45:53;;;;;;;;;;;;;;;;;;5040967;28;19916;-53
2023/04/17 04:48:20;;;;;;;;;;;;;;;;;;5065020;28;19994;-53
2023/04/17 04:50:46;;;;;;;;;;;;;;;;;;5058111;28;19913;-53
2023/04/17 04:53:12;;;;;;;;;;;;;;;;;;5058049;28;19915;-53
2023/04/17 04:55:38;;;;;;;;;;;;;;;;;;5065628;28;19916;-53
2023/04/17 04:58:04;;;;;;;;;;;;;;;;;;5056873;28;19958;-54
2023/04/17 05:00:30;;;;;;;;;;;;;;;;;;5061140;28;20195;-53
2023/04/17 05:02:56;;;;;;;;;;;;;;;;;;5036808;28;19925;-53
2023/04/17 05:05:22;;;;;;;;;;;;;;;;;;5063394;28;19919;-53
2023/04/17 05:07:48;;;;;;;;;;;;;;;;;;5054836;28;19921;-54
2023/04/17 05:10:14;;;;;;;;;;;;;;;;;;5059961;28;19916;-54
2023/04/17 05:12:41;;;;;;;;;;;;;;;;;;5061911;28;20003;-57
2023/04/17 05:15:07;;;;;;;;;;;;;;;;;;5061889;28;20352;-54
2023/04/17 05:17:33;;;;;;;;;;;;;;;;;;5068264;28;19909;-54
2023/04/17 05:19:59;;;;;;;;;;;;;;;;;;5058743;28;20352;-54
2023/04/17 05:22:26;;;;;;;;;;;;;;;;;;5042547;28;19931;-52
2023/04/17 05:24:52;;;;;;;;;;;;;;;;;;5059973;28;19977;-54
2023/04/17 05:27:18;;;;;;;;;;;;;;;;;;5055884;28;20448;-53
2023/04/17 05:29:44;;;;;;;;;;;;;;;;;;5059155;28;19914;-54
2023/04/17 05:32:10;;;;;;;;;;;;;;;;;;5059486;28;20400;-53
2023/04/17 05:34:37;;;;;;;;;;;;;;;;;;5043682;28;20415;-53
2023/04/17 05:37:03;;;;;;;;;;;;;;;;;;5055101;28;19915;-53
2023/04/17 05:39:29;;;;;;;;;;;;;;;;;;5064608;28;19909;-53
2023/04/17 05:41:55;;;;;;;;;;;;;;;;;;5069951;28;19917;-52
2023/04/17 05:44:21;;;;;;;;;;;;;;;;;;5068010;28;19908;-53
2023/04/17 05:46:47;;;;;;;;;;;;;;;;;;5066459;28;20301;-53
2023/04/17 05:49:13;;;;;;;;;;;;;;;;;;5067938;28;19951;-52
2023/04/17 05:51:39;;;;;;;;;;;;;;;;;;5046871;28;19913;-52
2023/04/17 05:54:05;;;;;;;;;;;;;;;;;;5064501;28;19923;-53
2023/04/17 05:56:31;;;;;;;;;;;;;;;;;;5065173;28;19947;-53
2023/04/17 05:58:57;;;;;;;;;;;;;;;;;;5064719;28;19995;-52
2023/04/17 06:01:24;;;;;;;;;;;;;;;;;;5058082;28;19919;-53
2023/04/17 06:03:50;;;;;;;;;;;;;;;;;;5055306;28;19985;-52
2023/04/17 06:06:16;;;;;;;;;;;;;;;;;;5055210;28;19954;-52
2023/04/17 06:08:42;;;;;;;;;;;;;;;;;;5062921;28;20178;-53
2023/04/17 06:11:08;;;;;;;;;;;;;;;;;;5064849;28;19912;-53
2023/04/17 06:13:34;;;;;;;;;;;;;;;;;;5048514;28;19951;-53
2023/04/17 06:16:00;;;;;;;;;;;;;;;;;;5057797;28;20065;-53
2023/04/17 06:18:26;;;;;;;;;;;;;;;;;;5056523;28;19912;-52
2023/04/17 06:20:53;;;;;;;;;;;;;;;;;;5063833;28;20291;-53
2023/04/17 06:23:19;;;;;;;;;;;;;;;;;;5059177;28;20026;-53
2023/04/17 06:25:45;;;;;;;;;;;;;;;;;;5049825;28;19915;-53
2023/04/17 06:28:11;;;;;;;;;;;;;;;;;;5067019;28;19927;-54
2023/04/17 06:30:38;;;;;;;;;;;;;;;;;;5059760;28;19923;-53
2023/04/17 06:33:04;;;;;;;;;;;;;;;;;;5067723;28;19908;-54
2023/04/17 06:35:30;;;;;;;;;;;;;;;;;;5056061;28;19915;-53
2023/04/17 06:37:56;;;;;;;;;;;;;;;;;;5059622;28;19994;-53
2023/04/17 06:40:22;;;;;;;;;;;;;;;;;;5061815;28;19912;-53
2023/04/17 06:42:48;;;;;;;;;;;;;;;;;;5065916;28;19912;-53
2023/04/17 06:45:14;;;;;;;;;;;;;;;;;;5063972;28;20001;-52
2023/04/17 06:47:41;;;;;;;;;;;;;;;;;;5066893;28;19984;-53
2023/04/17 06:50:07;;;;;;;;;;;;;;;;;;5075157;28;19923;-53
2023/04/17 06:52:34;;;;;;;;;;;;;;;;;;5062476;28;20386;-52
2023/04/17 06:55:01;;;;;;;;;;;;;;;;;;5063878;28;19909;-53
2023/04/17 06:57:27;;;;;;;;;;;;;;;;;;5059420;28;19920;-53
2023/04/17 06:59:53;;;;;;;;;;;;;;;;;;5063540;28;19935;-54
2023/04/17 07:02:19;;;;;;;;;;;;;;;;;;5062596;28;19908;-54
2023/04/17 07:04:45;;;;;;;;;;;;;;;;;;5065664;28;20323;-54
2023/04/17 07:07:11;;;;;;;;;;;;;;;;;;5062243;28;19960;-54
2023/04/17 07:09:37;;;;;;;;;;;;;;;;;;5047857;28;19939;-54
2023/04/17 07:12:04;;;;;;;;;;;;;;;;;;5057078;28;19912;-53
2023/04/17 07:14:30;;;;;;;;;;;;;;;;;;5064366;28;19919;-54
2023/04/17 07:16:56;;;;;;;;;;;;;;;;;;5056407;28;19913;-56
2023/04/17 07:19:22;;;;;;;;;;;;;;;;;;5061810;28;19919;-54
2023/04/17 07:21:48;;;;;;;;;;;;;;;;;;5044570;28;19966;-54
2023/04/17 07:24:15;;;;;;;;;;;;;;;;;;5063148;28;19908;-53
2023/04/17 07:26:42;;;;;;;;;;;;;;;;;;5057807;28;19948;-53
2023/04/17 07:29:08;;;;;;;;;;;;;;;;;;5062537;28;19961;-53
2023/04/17 07:31:34;;;;;;;;;;;;;;;;;;5058245;28;20433;-53
2023/04/17 07:34:00;;;;;;;;;;;;;;;;;;5065913;28;20345;-54
2023/04/17 07:36:27;;;;;;;;;;;;;;;;;;5067480;28;19916;-54
2023/04/17 07:38:53;;;;;;;;;;;;;;;;;;5065869;28;19924;-53
2023/04/17 07:41:19;;;;;;;;;;;;;;;;;;5076692;28;19912;-52
2023/04/17 07:43:46;;;;;;;;;;;;;;;;;;5065289;28;20361;-54
2023/04/17 07:46:12;;;;;;;;;;;;;;;;;;5072632;28;20398;-53
2023/04/17 07:48:38;;;;;;;;;;;;;;;;;;5051575;28;20388;-53
2023/04/17 07:51:04;;;;;;;;;;;;;;;;;;5067545;28;20353;-53
2023/04/17 07:53:30;;;;;;;;;;;;;;;;;;5063342;28;19912;-52
2023/04/17 07:55:57;;;;;;;;;;;;;;;;;;5071404;28;19916;-51
2023/04/17 07:58:25;;;;;;;;;;;;;;;;;;5068021;28;19908;-52
2023/04/17 08:00:52;;;;;;;;;;;;;;;;;;5067658;28;19908;-54
2023/04/17 08:03:22;;;;;;;;;;;;;;;;;;5065547;28;20129;-51
2023/04/17 08:05:48;;;;;;;;;;;;;;;;;;5062734;28;19924;-51
2023/04/17 08:08:15;;;;;;;;;;;;;;;;;;5062416;28;19936;-51
2023/04/17 08:10:41;;;;;;;;;;;;;;;;;;5072147;28;19912;-51
2023/04/17 08:13:07;;;;;;;;;;;;;;;;;;5067775;28;19944;-50
2023/04/17 08:15:33;;;;;;;;;;;;;;;;;;5061698;28;19912;-51
2023/04/17 08:17:59;;;;;;;;;;;;;;;;;;5057641;28;19916;-50
2023/04/17 08:20:26;;;;;;;;;;;;;;;;;;5058670;28;20369;-50
2023/04/17 08:22:52;;;;;;;;;;;;;;;;;;5070805;28;20301;-51
2023/04/17 08:25:18;;;;;;;;;;;;;;;;;;5081043;28;19911;-51
2023/04/17 08:27:44;;;;;;;;;;;;;;;;;;5052709;28;19912;-51
2023/04/17 08:30:10;;;;;;;;;;;;;;;;;;5082241;28;19912;-50
2023/04/17 08:32:36;;;;;;;;;;;;;;;;;;5088178;28;19927;-51
2023/04/17 08:35:03;;;;;;;;;;;;;;;;;;5066584;28;20255;-51
2023/04/17 08:37:30;;;;;;;;;;;;;;;;;;5068734;28;20286;-51
2023/04/17 08:39:56;;;;;;;;;;;;;;;;;;5058782;28;19912;-50
2023/04/17 08:42:23;;;;;;;;;;;;;;;;;;5064467;28;20344;-50
2023/04/17 08:44:49;;;;;;;;;;;;;;;;;;5072841;28;20521;-51
2023/04/17 08:47:15;;;;;;;;;;;;;;;;;;5067812;28;20387;-51
2023/04/17 08:49:42;;;;;;;;;;;;;;;;;;5063609;28;20280;-50
2023/04/17 08:52:08;;;;;;;;;;;;;;;;;;5072011;28;20355;-50
2023/04/17 08:54:35;;;;;;;;;;;;;;;;;;5075115;28;19919;-51
2023/04/17 08:57:01;;;;;;;;;;;;;;;;;;5065586;28;19913;-51
2023/04/17 08:59:27;;;;;;;;;;;;;;;;;;5072914;28;19911;-50
2023/04/17 09:01:53;;;;;;;;;;;;;;;;;;5074443;28;20328;-50
2023/04/17 09:04:19;;;;;;;;;;;;;;;;;;5065158;28;19912;-50
2023/04/17 09:06:46;;;;;;;;;;;;;;;;;;5068266;28;19951;-50
2023/04/17 09:09:12;;;;;;;;;;;;;;;;;;5061129;28;19916;-50
2023/04/17 09:11:38;;;;;;;;;;;;;;;;;;5063210;28;19967;-50
2023/04/17 09:14:04;;;;;;;;;;;;;;;;;;5069046;28;20375;-50
2023/04/17 09:16:30;;;;;;;;;;;;;;;;;;5069390;28;19908;-50
2023/04/17 09:18:57;;;;;;;;;;;;;;;;;;5066547;28;19912;-50
2023/04/17 09:21:23;;;;;;;;;;;;;;;;;;5069235;28;19923;-51
2023/04/17 09:23:49;;;;;;;;;;;;;;;;;;5070519;28;19924;-50
2023/04/17 09:26:16;;;;;;;;;;;;;;;;;;5067824;28;20001;-50
2023/04/17 09:28:44;;;;;;;;;;;;;;;;;;5069952;28;19917;-50
2023/04/17 09:31:10;;;;;;;;;;;;;;;;;;5065176;28;19942;-50
2023/04/17 09:33:36;;;;;;;;;;;;;;;;;;5067870;28;20094;-50
2023/04/17 09:36:02;;;;;;;;;;;;;;;;;;5073204;28;19905;-50
2023/04/17 09:38:28;;;;;;;;;;;;;;;;;;5067969;28;19958;-50
2023/04/17 09:40:54;;;;;;;;;;;;;;;;;;5071797;28;19912;-50
2023/04/17 09:43:22;;;;;;;;;;;;;;;;;;5065557;28;19911;-50
2023/04/17 09:45:51;;;;;;;;;;;;;;;;;;5074686;28;20191;-50
2023/04/17 09:48:17;;;;;;;;;;;;;;;;;;5058301;28;20014;-50
2023/04/17 09:50:43;;;;;;;;;;;;;;;;;;5074267;28;20007;-52
2023/04/17 09:53:09;;;;;;;;;;;;;;;;;;5065363;28;19979;-51
2023/04/17 09:55:36;;;;;;;;;;;;;;;;;;5071617;28;19990;-50
2023/04/17 09:58:02;;;;;;;;;;;;;;;;;;5065062;28;19915;-51
2023/04/17 10:00:28;;;;;;;;;;;;;;;;;;5064913;28;20027;-51
2023/04/17 10:02:55;;;;;;;;;;;;;;;;;;5065903;28;19944;-50
2023/04/17 10:05:21;;;;;;;;;;;;;;;;;;5075032;28;20420;-51
2023/04/17 10:07:47;;;;;;;;;;;;;;;;;;5040221;28;19967;-51
2023/04/17 10:10:13;;;;;;;;;;;;;;;;;;5068348;28;19916;-51
2023/04/17 10:12:39;;;;;;;;;;;;;;;;;;5061281;28;19956;-50
2023/04/17 10:15:06;;;;;;;;;;;;;;;;;;5079916;28;20298;-51
2023/04/17 10:17:33;;;;;;;;;;;;;;;;;;5064517;28;19913;-51
2023/04/17 10:19:59;;;;;;;;;;;;;;;;;;5067710;28;20547;-51
2023/04/17 10:22:26;;;;;;;;;;;;;;;;;;5065965;28;19950;-51
2023/04/17 10:24:52;;;;;;;;;;;;;;;;;;5074651;28;20363;-50
2023/04/17 10:27:19;;;;;;;;;;;;;;;;;;5056316;28;20009;-51
2023/04/17 10:29:45;;;;;;;;;;;;;;;;;;5063014;28;19916;-50
2023/04/17 10:32:11;;;;;;;;;;;;;;;;;;5060492;28;19965;-50
2023/04/17 10:34:37;;;;;;;;;;;;;;;;;;5056453;28;19940;-50
2023/04/17 10:37:03;;;;;;;;;;;;;;;;;;5066855;28;19919;-50
2023/04/17 10:39:30;;;;;;;;;;;;;;;;;;5057915;28;19935;-51
2023/04/17 10:41:56;;;;;;;;;;;;;;;;;;5063343;28;19923;-50
2023/04/17 10:44:22;;;;;;;;;;;;;;;;;;5062357;28;20283;-51
2023/04/17 10:46:48;;;;;;;;;;;;;;;;;;5057918;28;20360;-51
2023/04/17 10:49:14;;;;;;;;;;;;;;;;;;5051338;28;19939;-51
2023/04/17 10:51:40;;;;;;;;;;;;;;;;;;5055996;28;19912;-52
2023/04/17 10:54:09;;;;;;;;;;;;;;;;;;5064976;28;19950;-53
2023/04/17 10:56:37;;;;;;;;;;;;;;;;;;5065804;28;19923;-52
2023/04/17 10:59:03;;;;;;;;;;;;;;;;;;5067714;28;19939;-52
2023/04/17 11:01:30;;;;;;;;;;;;;;;;;;5058895;28;19923;-51
2023/04/17 11:03:58;;;;;;;;;;;;;;;;;;5064933;28;20241;-53
2023/04/17 11:06:24;;;;;;;;;;;;;;;;;;5069615;28;19909;-51
2023/04/17 11:08:50;;;;;;;;;;;;;;;;;;5062998;28;20252;-51
2023/04/17 11:11:17;;;;;;;;;;;;;;;;;;5056406;28;20336;-52
2023/04/17 11:13:43;;;;;;;;;;;;;;;;;;5058568;28;20402;-50
2023/04/17 11:16:09;;;;;;;;;;;;;;;;;;5041602;28;20062;-51
2023/04/17 11:18:36;;;;;;;;;;;;;;;;;;5066636;28;19916;-51
2023/04/17 11:21:02;;;;;;;;;;;;;;;;;;5076369;28;20469;-51
2023/04/17 11:23:28;;;;;;;;;;;;;;;;;;5047887;28;19968;-52
2023/04/17 11:25:55;;;;;;;;;;;;;;;;;;5050982;28;20070;-52
2023/04/17 11:28:20;;;;;;;;;;;;;;;;;;5047791;28;19961;-52
2023/04/17 11:30:46;;;;;;;;;;;;;;;;;;5046974;28;20002;-52
2023/04/17 11:33:13;;;;;;;;;;;;;;;;;;5032091;28;19912;-50
2023/04/17 11:35:39;;;;;;;;;;;;;;;;;;5039199;28;19955;-53
2023/04/17 11:38:05;;;;;;;;;;;;;;;;;;5035664;28;19908;-53
2023/04/17 11:40:31;;;;;;;;;;;;;;;;;;5047665;28;20008;-53
2023/04/17 11:42:57;;;;;;;;;;;;;;;;;;5038782;28;20015;-53
2023/04/17 11:45:23;;;;;;;;;;;;;;;;;;5054567;28;19948;-52
2023/04/17 11:47:49;;;;;;;;;;;;;;;;;;5049111;28;20451;-52
2023/04/17 11:50:16;;;;;;;;;;;;;;;;;;5059467;28;20390;-52
2023/04/17 11:52:42;;;;;;;;;;;;;;;;;;5041933;28;20662;-51
2023/04/17 11:55:08;;;;;;;;;;;;;;;;;;5043250;28;19932;-51
2023/04/17 11:57:35;;;;;;;;;;;;;;;;;;5047689;28;19920;-51
2023/04/17 12:00:01;;;;;;;;;;;;;;;;;;5048916;28;19909;-51
2023/04/17 12:02:27;;;;;;;;;;;;;;;;;;5046122;28;19913;-51
2023/04/17 12:04:53;;;;;;;;;;;;;;;;;;5057855;28;20058;-52
2023/04/17 12:07:19;;;;;;;;;;;;;;;;;;5043728;28;19916;-52
2023/04/17 12:09:46;;;;;;;;;;;;;;;;;;5046406;28;19982;-52
2023/04/17 12:12:12;;;;;;;;;;;;;;;;;;5045286;28;19913;-52
2023/04/17 12:14:38;;;;;;;;;;;;;;;;;;5056995;28;19908;-51
2023/04/17 12:17:04;;;;;;;;;;;;;;;;;;5048819;28;19940;-52
2023/04/17 12:19:31;;;;;;;;;;;;;;;;;;5048834;28;20402;-51
2023/04/17 12:21:58;;;;;;;;;;;;;;;;;;5048049;28;20241;-51
2023/04/17 12:24:24;;;;;;;;;;;;;;;;;;5073956;28;19951;-51
2023/04/17 12:26:50;;;;;;;;;;;;;;;;;;5072761;28;19912;-52
2023/04/17 12:29:16;;;;;;;;;;;;;;;;;;5076470;28;19919;-51
2023/04/17 12:31:42;;;;;;;;;;;;;;;;;;5076290;28;19913;-52
2023/04/17 12:34:09;;;;;;;;;;;;;;;;;;5074445;28;19918;-51
2023/04/17 12:36:35;;;;;;;;;;;;;;;;;;5076131;28;20344;-51
2023/04/17 12:39:01;;;;;;;;;;;;;;;;;;5076580;28;19919;-52
2023/04/17 12:41:28;;;;;;;;;;;;;;;;;;5037326;28;19912;-52
2023/04/17 12:43:54;;;;;;;;;;;;;;;;;;5058256;28;19962;-51
2023/04/17 12:46:20;;;;;;;;;;;;;;;;;;5072742;28;20361;-51
2023/04/17 12:48:46;;;;;;;;;;;;;;;;;;5064164;28;19916;-53
2023/04/17 12:51:12;;;;;;;;;;;;;;;;;;5043319;28;19917;-53
2023/04/17 12:53:39;;;;;;;;;;;;;;;;;;5038300;28;20402;-54
2023/04/17 12:56:05;;;;;;;;;;;;;;;;;;5069520;28;19908;-53
2023/04/17 12:58:31;;;;;;;;;;;;;;;;;;5063496;28;19981;-53
2023/04/17 13:00:57;;;;;;;;;;;;;;;;;;5062550;28;19948;-53
2023/04/17 13:03:23;;;;;;;;;;;;;;;;;;5062826;28;19913;-53
2023/04/17 13:05:51;;;;;;;;;;;;;;;;;;5068662;28;19923;-53
2023/04/17 13:08:17;;;;;;;;;;;;;;;;;;5059667;28;19928;-52
2023/04/17 13:10:44;;;;;;;;;;;;;;;;;;5068913;28;19962;-53
2023/04/17 13:13:10;;;;;;;;;;;;;;;;;;5068016;28;20346;-53
2023/04/17 13:15:36;;;;;;;;;;;;;;;;;;5041154;28;19912;-54
2023/04/17 13:18:02;;;;;;;;;;;;;;;;;;5058661;28;19915;-53
2023/04/17 13:20:28;;;;;;;;;;;;;;;;;;5071301;28;19949;-53
2023/04/17 13:22:54;;;;;;;;;;;;;;;;;;5064048;28;19993;-53
2023/04/17 13:25:20;;;;;;;;;;;;;;;;;;5057692;28;20316;-53
2023/04/17 13:27:46;;;;;;;;;;;;;;;;;;5062709;28;20432;-52
2023/04/17 13:30:13;;;;;;;;;;;;;;;;;;5062682;28;19958;-54
2023/04/17 13:32:39;;;;;;;;;;;;;;;;;;5059547;28;20202;-54
2023/04/17 13:35:07;;;;;;;;;;;;;;;;;;5057749;28;19975;-53
2023/04/17 13:37:33;;;;;;;;;;;;;;;;;;5055818;28;19954;-52
2023/04/17 13:40:02;;;;;;;;;;;;;;;;;;5061898;28;19916;-52
2023/04/17 13:42:28;;;;;;;;;;;;;;;;;;5062607;28;20360;-54
2023/04/17 13:44:54;;;;;;;;;;;;;;;;;;5064085;28;19959;-53
2023/04/17 13:47:20;;;;;;;;;;;;;;;;;;5046320;28;19923;-54
2023/04/17 13:49:46;;;;;;;;;;;;;;;;;;5057736;28;19955;-52
2023/04/17 13:52:13;;;;;;;;;;;;;;;;;;5063960;28;19912;-53
2023/04/17 13:54:39;;;;;;;;;;;;;;;;;;5062745;28;20005;-52
2023/04/17 13:57:06;;;;;;;;;;;;;;;;;;5060570;28;20380;-53
2023/04/17 13:59:32;;;;;;;;;;;;;;;;;;5057871;28;19995;-53
2023/04/17 14:02:00;;;;;;;;;;;;;;;;;;5043856;28;20045;-53
2023/04/17 14:04:26;;;;;;;;;;;;;;;;;;5051627;28;19965;-51
2023/04/17 14:06:52;;;;;;;;;;;;;;;;;;5057544;28;21147;-52
2023/04/17 14:09:18;;;;;;;;;;;;;;;;;;5068912;28;20287;-52
2023/04/17 14:11:44;;;;;;;;;;;;;;;;;;5066799;28;19912;-51
2023/04/17 14:14:11;;;;;;;;;;;;;;;;;;5060884;28;20170;-52
2023/04/17 14:16:37;;;;;;;;;;;;;;;;;;5067849;28;19908;-52
2023/04/17 14:19:04;;;;;;;;;;;;;;;;;;5061797;28;20743;-52
2023/04/17 14:21:30;;;;;;;;;;;;;;;;;;5068795;28;20031;-52
2023/04/17 14:23:56;;;;;;;;;;;;;;;;;;5063889;28;19924;-52
2023/04/17 14:26:22;;;;;;;;;;;;;;;;;;5059642;28;20233;-52
2023/04/17 14:28:48;;;;;;;;;;;;;;;;;;5067717;28;19916;-52
2023/04/17 14:31:15;;;;;;;;;;;;;;;;;;5057512;28;20146;-52
2023/04/17 14:33:41;;;;;;;;;;;;;;;;;;5067658;28;19916;-52
2023/04/17 14:36:07;;;;;;;;;;;;;;;;;;5069383;28;19912;-52
2023/04/17 14:38:34;;;;;;;;;;;;;;;;;;5069175;28;19910;-52
2023/04/17 14:41:00;;;;;;;;;;;;;;;;;;5068882;28;19959;-52
2023/04/17 14:43:26;;;;;;;;;;;;;;;;;;5067774;28;19957;-52
2023/04/17 14:45:52;;;;;;;;;;;;;;;;;;5067034;28;19946;-52
2023/04/17 14:48:19;;;;;;;;;;;;;;;;;;5069782;28;19919;-52
2023/04/17 14:50:45;;;;;;;;;;;;;;;;;;5072405;28;20312;-52
2023/04/17 14:53:11;;;;;;;;;;;;;;;;;;5069646;28;20264;-53
2023/04/17 14:55:37;;;;;;;;;;;;;;;;;;5068815;28;20284;-52
2023/04/17 14:58:03;;;;;;;;;;;;;;;;;;5068658;28;19995;-53
2023/04/17 15:00:30;;;;;;;;;;;;;;;;;;5069198;28;19986;-52
2023/04/17 15:02:57;;;;;;;;;;;;;;;;;;5051403;28;19908;-53
2023/04/17 15:05:23;;;;;;;;;;;;;;;;;;5068634;28;20501;-53
2023/04/17 15:07:49;;;;;;;;;;;;;;;;;;5073223;28;19930;-52
2023/04/17 15:10:15;;;;;;;;;;;;;;;;;;5068312;28;20284;-53
2023/04/17 15:12:42;;;;;;;;;;;;;;;;;;5068570;28;19974;-53
2023/04/17 15:15:09;;;;;;;;;;;;;;;;;;5069028;28;20332;-52
2023/04/17 15:17:38;;;;;;;;;;;;;;;;;;5069366;28;20007;-53
2023/04/17 15:20:04;;;;;;;;;;;;;;;;;;5068017;28;20003;-53
2023/04/17 15:22:30;;;;;;;;;;;;;;;;;;5068380;28;19962;-51
2023/04/17 15:24:56;;;;;;;;;;;;;;;;;;5071823;28;19916;-53
2023/04/17 15:27:22;;;;;;;;;;;;;;;;;;5061121;28;19974;-53
2023/04/17 15:29:48;;;;;;;;;;;;;;;;;;5067831;28;19964;-52
2023/04/17 15:32:14;;;;;;;;;;;;;;;;;;5064239;28;19919;-53
2023/04/17 15:34:40;;;;;;;;;;;;;;;;;;5064403;28;19940;-53
2023/04/17 15:37:07;;;;;;;;;;;;;;;;;;5067111;28;19912;-53
2023/04/17 15:39:33;;;;;;;;;;;;;;;;;;5068014;28;19976;-52
2023/04/17 15:41:59;;;;;;;;;;;;;;;;;;5066305;28;19920;-52
2023/04/17 15:44:25;;;;;;;;;;;;;;;;;;5068426;28;19978;-52
2023/04/17 15:46:51;;;;;;;;;;;;;;;;;;5066997;28;19916;-52
2023/04/17 15:49:18;;;;;;;;;;;;;;;;;;5062040;28;19922;-52
2023/04/17 15:51:44;;;;;;;;;;;;;;;;;;5066398;28;19947;-51
2023/04/17 15:54:10;;;;;;;;;;;;;;;;;;5061385;28;20025;-53
2023/04/17 15:56:37;;;;;;;;;;;;;;;;;;5048762;28;20360;-52
2023/04/17 15:59:03;;;;;;;;;;;;;;;;;;5071646;28;19969;-52
2023/04/17 16:01:29;;;;;;;;;;;;;;;;;;5072010;28;19908;-52
2023/04/17 16:06:39;;;;;;;;;;;;;;;;;;5069930;28;19993;-52
2023/04/17 16:09:06;;;;;;;;;;;;;;;;;;5071970;28;20356;-52
2023/04/17 16:11:32;;;;;;;;;;;;;;;;;;5048960;28;20412;-52
2023/04/17 16:13:58;;;;;;;;;;;;;;;;;;5031664;28;19991;-52
2023/04/17 16:16:25;;;;;;;;;;;;;;;;;;5053568;28;19963;-52
2023/04/17 16:18:52;;;;;;;;;;;;;;;;;;5036737;28;20046;-52
2023/04/17 16:21:18;;;;;;;;;;;;;;;;;;5051513;28;19919;-52
2023/04/17 16:23:44;;;;;;;;;;;;;;;;;;5052258;28;19920;-52
2023/04/17 16:26:10;;;;;;;;;;;;;;;;;;5044352;28;20472;-52
2023/04/17 16:28:36;;;;;;;;;;;;;;;;;;5048282;28;20363;-51
2023/04/17 16:31:02;;;;;;;;;;;;;;;;;;5042684;28;19948;-51
2023/04/17 16:33:29;;;;;;;;;;;;;;;;;;5071625;28;19934;-51
2023/04/17 16:35:55;;;;;;;;;;;;;;;;;;5071876;28;19920;-52
2023/04/17 16:38:21;;;;;;;;;;;;;;;;;;5072321;28;19931;-52
2023/04/17 16:40:47;;;;;;;;;;;;;;;;;;5067538;28;19963;-54